Terminal Aerodrome Forecast
Issued by NWS Twin Cities, MN

Home | Current Version | Previous Version | Graphics & Text | Print | Product List | Glossary Off
Versions: 1 2 3 4 5 6 7 8 9 10 11 12

557
FTUS43 KMPX 200520
TAFEAU
TAF
KEAU 200520Z 2006/2106 18005KT P6SM SKC WS020/21040KT
     FM201200 17004KT P6SM SKC
     FM201600 19010KT P6SM SKC
     FM210000 17009KT P6SM FEW250 WS020/18040KT=

USA.gov is the U.S. government's official web portal to all federal, state and local government web resources and services.